Time;durP1;ratioP1;P1;durP2;ratioP2;P2;SDS_P1;SDS_P2;PMS_P1;PMS_P2;Temp;Humidity;BMP_temperature;BMP_pressure;BME280_temperature;BME280_humidity;BME280_pressure;Samples;Min_cycle;Max_cycle;Signal;HPM_P1;HPM_P2
2021/12/01 00:00:33;;;;;;;1.67;0.73;;;9.80;43.60;;;;;;5056238;28;20235;-50
2021/12/01 00:03:01;;;;;;;1.10;0.40;;;9.80;43.40;;;;;;5055635;28;20282;-49
2021/12/01 00:05:33;;;;;;;1.00;0.28;;;9.80;43.60;;;;;;5055664;28;20165;-50
2021/12/01 00:08:01;;;;;;;1.65;0.45;;;9.80;43.50;;;;;;5023142;28;20598;-49
2021/12/01 00:10:32;;;;;;;1.20;0.60;;;9.90;43.60;;;;;;5070205;28;20176;-49
2021/12/01 00:12:59;;;;;;;1.48;0.60;;;9.80;43.50;;;;;;5058910;28;20200;-50
2021/12/01 00:15:26;;;;;;;4.18;1.30;;;9.90;43.60;;;;;;5075391;28;20183;-49
2021/12/01 00:17:54;;;;;;;1.25;0.68;;;9.90;43.40;;;;;;5075369;28;20207;-49
2021/12/01 00:20:22;;;;;;;1.52;0.75;;;9.90;43.20;;;;;;5075494;28;20525;-49
2021/12/01 00:22:50;;;;;;;1.40;0.63;;;9.80;43.10;;;;;;5076066;28;20334;-49
2021/12/01 00:25:20;;;;;;;1.00;0.20;;;9.80;43.20;;;;;;5075149;28;20318;-49
2021/12/01 00:27:47;;;;;;;3.15;0.57;;;9.80;43.40;;;;;;5075150;28;20161;-50
2021/12/01 00:30:14;;;;;;;1.00;0.40;;;9.80;43.30;;;;;;5075090;28;20492;-49
2021/12/01 00:32:41;;;;;;;1.00;0.25;;;9.80;43.90;;;;;;5058731;28;20164;-50
2021/12/01 00:35:10;;;;;;;2.35;1.08;;;9.80;42.90;;;;;;5075942;28;20241;-49
2021/12/01 00:37:39;;;;;;;1.00;0.30;;;9.70;43.20;;;;;;5075043;28;20176;-51
2021/12/01 00:40:08;;;;;;;1.20;0.80;;;9.80;43.10;;;;;;5074589;28;20216;-50
2021/12/01 00:42:36;;;;;;;1.10;0.40;;;9.70;43.30;;;;;;5074654;28;20204;-51
2021/12/01 00:45:11;;;;;;;9.02;1.40;;;9.80;43.30;;;;;;5075697;28;20161;-50
2021/12/01 00:47:47;;;;;;;1.20;0.40;;;9.80;43.20;;;;;;5074699;28;20182;-50
2021/12/01 00:50:21;;;;;;;2.60;1.15;;;9.70;42.90;;;;;;5074674;28;20168;-49
2021/12/01 00:52:50;;;;;;;2.67;1.00;;;9.80;43.00;;;;;;5074603;28;20171;-50
2021/12/01 00:55:17;;;;;;;1.33;0.43;;;9.80;43.20;;;;;;5074501;28;20259;-50
2021/12/01 00:57:45;;;;;;;1.00;0.30;;;9.80;43.20;;;;;;5074628;28;20164;-50
2021/12/01 01:00:13;;;;;;;1.00;0.30;;;9.70;43.20;;;;;;5075373;28;20169;-51
2021/12/01 01:02:41;;;;;;;1.10;0.40;;;9.80;43.10;;;;;;5075332;28;20199;-50
2021/12/01 01:05:09;;;;;;;1.00;0.38;;;9.70;43.10;;;;;;5075214;28;20172;-50
2021/12/01 01:07:37;;;;;;;1.00;0.30;;;9.70;42.90;;;;;;5075274;28;20504;-50
2021/12/01 01:18:26;;;;;;;1.20;0.57;;;9.70;43.40;;;;;;5075369;28;20177;-50
2021/12/01 01:20:53;;;;;;;1.00;0.30;;;9.70;43.50;;;;;;5075107;28;20168;-50
2021/12/01 01:23:21;;;;;;;2.75;1.00;;;9.70;43.60;;;;;;5074259;28;20499;-49
2021/12/01 01:25:49;;;;;;;1.13;0.43;;;9.70;43.50;;;;;;5074954;28;20234;-50
2021/12/01 01:28:16;;;;;;;1.48;1.00;;;9.70;43.60;;;;;;5074998;28;20175;-50
2021/12/01 01:30:44;;;;;;;1.00;0.20;;;9.80;43.70;;;;;;5074222;28;20160;-50
2021/12/01 01:33:11;;;;;;;1.00;0.30;;;9.80;43.60;;;;;;5074963;28;20233;-50
2021/12/01 01:35:39;;;;;;;3.80;0.65;;;9.80;43.60;;;;;;5075108;28;20175;-50
2021/12/01 01:38:06;;;;;;;1.35;0.65;;;9.80;43.70;;;;;;5073994;28;20173;-49
2021/12/01 01:40:34;;;;;;;2.00;0.50;;;9.80;43.60;;;;;;5058054;28;20703;-50
2021/12/01 01:43:02;;;;;;;1.00;0.40;;;9.80;43.80;;;;;;5054835;28;20211;-49
2021/12/01 01:45:30;;;;;;;1.52;0.35;;;9.80;43.70;;;;;;5054727;28;20158;-49
2021/12/01 01:48:03;;;;;;;1.42;0.40;;;9.80;43.90;;;;;;5054740;28;20227;-49
2021/12/01 01:50:43;;;;;;;1.10;0.40;;;9.80;43.90;;;;;;5037023;28;20175;-49
2021/12/01 01:53:26;;;;;;;1.00;0.30;;;9.80;44.00;;;;;;5021269;28;20594;-49
2021/12/01 01:55:57;;;;;;;1.45;0.63;;;9.80;44.10;;;;;;5037040;28;20593;-49
2021/12/01 01:58:25;;;;;;;1.00;0.30;;;9.80;44.10;;;;;;5037731;28;20145;-49
2021/12/01 02:01:08;;;;;;;1.00;0.30;;;9.80;44.20;;;;;;5037256;28;20252;-50
2021/12/01 02:03:49;;;;;;;1.02;0.35;;;9.80;44.20;;;;;;5054303;28;20193;-49
2021/12/01 02:06:34;;;;;;;1.35;0.43;;;9.80;45.00;;;;;;5054547;28;20165;-49
2021/12/01 02:09:02;;;;;;;1.00;0.20;;;9.80;44.30;;;;;;5036701;28;20605;-49
2021/12/01 02:11:30;;;;;;;1.10;0.30;;;9.70;44.50;;;;;;5021028;28;20244;-49
2021/12/01 02:13:58;;;;;;;1.00;0.30;;;9.70;44.50;;;;;;5054423;28;20176;-50
2021/12/01 02:16:26;;;;;;;1.05;0.38;;;9.70;44.70;;;;;;5037047;28;20165;-49
2021/12/01 02:18:54;;;;;;;1.00;0.20;;;9.70;44.80;;;;;;5037045;28;20204;-49
2021/12/01 02:21:27;;;;;;;1.10;0.40;;;9.70;44.90;;;;;;5020812;28;20624;-49
2021/12/01 02:24:00;;;;;;;1.90;0.40;;;9.80;44.80;;;;;;5058449;28;20197;-50
2021/12/01 02:26:29;;;;;;;1.83;0.30;;;9.80;44.80;;;;;;5058770;28;20223;-49
2021/12/01 02:28:59;;;;;;;1.00;0.30;;;9.70;44.40;;;;;;5058289;28;20165;-49
2021/12/01 02:31:34;;;;;;;1.20;0.60;;;9.80;45.00;;;;;;5058183;28;20230;-49
2021/12/01 02:34:04;;;;;;;1.38;0.80;;;9.80;45.00;;;;;;5040708;28;20256;-50
2021/12/01 02:36:31;;;;;;;1.00;0.30;;;9.80;45.30;;;;;;5058153;28;20179;-49
2021/12/01 02:38:59;;;;;;;1.20;0.75;;;9.70;45.80;;;;;;5024317;28;20208;-49
2021/12/01 02:41:30;;;;;;;11.07;1.02;;;9.60;45.70;;;;;;5040625;28;20184;-49
2021/12/01 02:44:00;;;;;;;1.33;0.77;;;9.60;45.90;;;;;;5040909;28;20195;-50
2021/12/01 02:46:28;;;;;;;2.00;0.60;;;9.60;46.10;;;;;;5057996;28;20173;-48
2021/12/01 02:48:56;;;;;;;1.00;0.20;;;9.70;46.20;;;;;;5024388;28;20261;-50
2021/12/01 02:51:30;;;;;;;1.00;0.35;;;9.60;46.00;;;;;;5040641;28;20168;-49
2021/12/01 02:53:59;;;;;;;1.08;0.30;;;9.60;46.20;;;;;;5024685;28;20179;-48
2021/12/01 02:56:28;;;;;;;1.00;0.30;;;9.60;46.30;;;;;;5057718;28;20256;-49
2021/12/01 02:58:56;;;;;;;1.52;0.80;;;9.60;46.80;;;;;;5040443;28;20178;-49
2021/12/01 03:01:24;;;;;;;1.00;0.20;;;9.50;46.90;;;;;;5024224;28;20165;-49
2021/12/01 03:03:53;;;;;;;1.00;0.30;;;9.50;47.40;;;;;;5057580;28;20189;-49
2021/12/01 03:06:26;;;;;;;1.10;0.50;;;9.50;47.90;;;;;;5040169;28;20615;-49
2021/12/01 03:08:55;;;;;;;1.00;0.30;;;9.50;47.80;;;;;;5057559;28;20161;-49
2021/12/01 03:11:23;;;;;;;1.60;0.70;;;9.50;47.80;;;;;;5057480;28;20176;-49
2021/12/01 03:13:51;;;;;;;1.00;0.20;;;9.50;48.00;;;;;;5040051;28;20165;-48
2021/12/01 03:16:18;;;;;;;2.28;0.63;;;9.50;48.70;;;;;;5040076;28;20504;-47
2021/12/01 03:18:45;;;;;;;1.00;0.20;;;9.50;48.40;;;;;;5039653;28;20264;-47
2021/12/01 03:21:14;;;;;;;1.00;0.38;;;9.50;48.40;;;;;;5057317;28;20173;-46
2021/12/01 03:23:42;;;;;;;1.10;0.43;;;9.50;48.60;;;;;;5039795;28;20220;-46
2021/12/01 03:26:11;;;;;;;1.00;0.30;;;9.40;50.20;;;;;;5039919;28;20192;-47
2021/12/01 03:28:40;;;;;;;1.00;0.30;;;9.40;49.30;;;;;;5023953;28;20498;-46
2021/12/01 03:31:08;;;;;;;1.10;0.40;;;9.40;49.30;;;;;;5057198;28;20490;-46
2021/12/01 03:33:36;;;;;;;1.10;0.50;;;9.40;49.60;;;;;;5022681;28;20497;-46
2021/12/01 03:36:04;;;;;;;2.15;0.50;;;9.40;49.80;;;;;;5023049;28;20180;-46
2021/12/01 03:38:31;;;;;;;1.02;0.32;;;9.40;50.10;;;;;;5057039;28;20172;-47
2021/12/01 03:40:59;;;;;;;1.00;0.20;;;9.40;49.70;;;;;;5056845;28;20646;-47
2021/12/01 03:43:27;;;;;;;1.40;0.60;;;9.30;50.40;;;;;;5039183;28;20199;-47
2021/12/01 03:45:55;;;;;;;1.15;0.63;;;9.30;50.40;;;;;;5056784;28;20166;-48
2021/12/01 03:48:23;;;;;;;1.00;0.20;;;9.30;50.40;;;;;;5056759;28;20165;-46
2021/12/01 03:50:54;;;;;;;1.00;0.30;;;9.30;50.40;;;;;;5039519;28;20175;-46
2021/12/01 03:53:23;;;;;;;1.52;0.52;;;9.30;50.40;;;;;;5056752;28;20161;-48
2021/12/01 03:55:52;;;;;;;1.20;0.50;;;9.40;50.10;;;;;;5039411;28;20168;-47
2021/12/01 03:58:20;;;;;;;1.02;0.45;;;9.40;49.90;;;;;;5056703;28;20547;-47
2021/12/01 04:00:48;;;;;;;1.10;0.45;;;9.40;49.80;;;;;;5039274;28;20173;-47
2021/12/01 04:03:15;;;;;;;1.00;0.30;;;9.40;50.00;;;;;;5022777;28;20279;-48
2021/12/01 04:05:43;;;;;;;1.40;0.60;;;9.40;49.70;;;;;;5056585;28;20164;-47
2021/12/01 04:08:10;;;;;;;1.00;0.30;;;9.50;50.00;;;;;;5022739;28;20169;-47
2021/12/01 04:10:38;;;;;;;1.90;0.75;;;9.40;49.60;;;;;;5039062;28;20192;-46
2021/12/01 04:13:06;;;;;;;1.00;0.30;;;9.50;49.80;;;;;;5056268;28;20333;-47
2021/12/01 04:15:33;;;;;;;1.35;0.73;;;9.50;49.70;;;;;;5030222;28;20203;-47
2021/12/01 04:18:01;;;;;;;1.13;0.45;;;9.40;49.70;;;;;;5019001;28;20203;-47
2021/12/01 04:20:29;;;;;;;1.10;0.50;;;9.40;50.10;;;;;;5036348;28;20180;-46
2021/12/01 04:22:57;;;;;;;1.00;0.30;;;9.40;49.90;;;;;;5036166;28;20503;-47
2021/12/01 04:25:24;;;;;;;1.00;0.40;;;9.40;50.10;;;;;;5036108;28;20165;-46
2021/12/01 04:27:53;;;;;;;1.00;0.30;;;9.40;49.80;;;;;;5036125;28;20173;-48
2021/12/01 04:30:22;;;;;;;1.98;0.93;;;9.40;49.70;;;;;;5018979;28;20586;-46
2021/12/01 04:32:51;;;;;;;1.23;0.60;;;9.40;49.70;;;;;;5019190;28;20172;-46
2021/12/01 04:35:21;;;;;;;1.10;0.38;;;9.40;50.00;;;;;;5018755;28;20158;-47
2021/12/01 04:37:49;;;;;;;1.48;0.93;;;9.40;50.00;;;;;;5018804;28;20173;-46
2021/12/01 04:40:17;;;;;;;1.10;0.50;;;9.30;50.00;;;;;;5026258;28;20346;-47
2021/12/01 04:42:45;;;;;;;1.10;0.50;;;9.30;50.30;;;;;;5054797;28;20173;-47
2021/12/01 04:45:16;;;;;;;1.05;0.35;;;9.30;50.20;;;;;;5021900;28;20172;-48
2021/12/01 04:47:45;;;;;;;1.30;0.40;;;9.30;50.40;;;;;;5055057;28;20593;-46
2021/12/01 04:50:14;;;;;;;1.73;1.60;;;9.30;50.60;;;;;;5054742;28;20194;-47
2021/12/01 04:52:41;;;;;;;1.40;0.70;;;9.20;50.70;;;;;;5055620;28;20183;-46
2021/12/01 04:55:10;;;;;;;1.33;0.52;;;9.20;50.70;;;;;;5054591;28;20157;-47
2021/12/01 04:57:42;;;;;;;1.00;0.30;;;9.20;50.60;;;;;;5055545;28;20549;-47
2021/12/01 05:00:14;;;;;;;1.00;0.20;;;9.30;50.60;;;;;;5055398;28;20606;-47
2021/12/01 05:02:42;;;;;;;1.40;0.50;;;9.30;50.60;;;;;;5054503;28;20174;-47
2021/12/01 05:05:10;;;;;;;1.20;0.73;;;9.30;51.20;;;;;;5055460;28;20565;-46
2021/12/01 05:07:37;;;;;;;1.10;0.40;;;9.30;50.40;;;;;;5055244;28;20172;-46
2021/12/01 05:10:06;;;;;;;1.00;0.30;;;9.30;50.50;;;;;;5054390;28;20667;-47
2021/12/01 05:12:37;;;;;;;1.50;0.90;;;9.40;50.40;;;;;;5055180;28;20174;-46
2021/12/01 05:15:06;;;;;;;1.40;1.02;;;9.40;50.30;;;;;;5038451;28;20475;-46
2021/12/01 05:17:34;;;;;;;1.40;0.50;;;9.40;50.50;;;;;;5054228;28;20166;-47
2021/12/01 05:20:04;;;;;;;1.05;0.40;;;9.40;50.30;;;;;;5054207;28;20166;-47
2021/12/01 05:22:32;;;;;;;1.25;0.40;;;9.40;50.20;;;;;;5055504;28;20180;-46
2021/12/01 05:25:00;;;;;;;1.13;0.57;;;9.40;50.20;;;;;;5074099;28;20263;-46
2021/12/01 05:27:28;;;;;;;2.80;1.00;;;9.40;50.30;;;;;;5074122;28;20630;-47
2021/12/01 05:29:55;;;;;;;1.00;0.30;;;9.40;50.30;;;;;;5057455;28;20171;-46
2021/12/01 05:32:23;;;;;;;1.52;0.82;;;9.40;50.30;;;;;;5074980;28;20174;-47
2021/12/01 05:34:51;;;;;;;1.75;0.65;;;9.40;50.20;;;;;;5074790;28;20165;-46
2021/12/01 05:37:18;;;;;;;1.00;0.40;;;9.40;50.30;;;;;;5074851;28;20168;-47
2021/12/01 05:39:46;;;;;;;1.48;0.60;;;9.50;50.60;;;;;;5065266;28;20227;-47
2021/12/01 05:42:16;;;;;;;1.20;0.43;;;9.50;50.60;;;;;;5054761;28;20498;-46
2021/12/01 05:44:44;;;;;;;1.40;0.50;;;9.50;50.70;;;;;;5054529;28;20188;-47
2021/12/01 05:47:12;;;;;;;1.00;0.20;;;9.50;50.70;;;;;;5037443;28;20263;-47
2021/12/01 05:49:44;;;;;;;1.58;1.25;;;9.50;50.60;;;;;;5037437;28;20218;-46
2021/12/01 05:52:14;;;;;;;1.30;0.55;;;9.50;50.60;;;;;;5054578;28;20180;-47
2021/12/01 05:54:43;;;;;;;1.20;0.60;;;9.50;50.60;;;;;;5037592;28;20177;-47
2021/12/01 05:57:11;;;;;;;1.75;0.60;;;9.50;50.60;;;;;;5036906;28;20180;-46
2021/12/01 05:59:39;;;;;;;3.38;1.00;;;9.50;50.60;;;;;;5037342;28;20189;-47
2021/12/01 06:02:07;;;;;;;2.63;0.82;;;9.50;50.70;;;;;;5054535;28;20622;-46
2021/12/01 06:04:34;;;;;;;1.02;0.40;;;9.60;50.60;;;;;;5054524;28;20271;-47
2021/12/01 06:07:01;;;;;;;2.10;1.02;;;9.60;50.60;;;;;;5054506;28;20173;-46
2021/12/01 06:09:28;;;;;;;1.23;0.60;;;9.60;50.40;;;;;;5037082;28;20165;-46
2021/12/01 06:11:56;;;;;;;2.05;0.50;;;9.70;50.50;;;;;;5054505;28;20644;-47
2021/12/01 06:14:24;;;;;;;1.85;1.05;;;9.70;50.40;;;;;;5054518;28;20165;-47
2021/12/01 06:16:53;;;;;;;2.35;1.48;;;9.70;50.30;;;;;;5054282;28;20176;-46
2021/12/01 06:19:21;;;;;;;1.10;0.45;;;9.70;50.30;;;;;;5054338;28;20621;-46
2021/12/01 06:21:49;;;;;;;3.35;1.25;;;9.70;50.40;;;;;;5054360;28;20177;-47
2021/12/01 06:24:16;;;;;;;1.50;1.10;;;9.80;50.50;;;;;;5036584;28;20274;-46
2021/12/01 06:26:44;;;;;;;2.03;1.08;;;9.80;50.40;;;;;;5054291;28;20158;-47
2021/12/01 06:29:11;;;;;;;1.10;0.52;;;9.70;50.40;;;;;;5054586;28;20551;-46
2021/12/01 06:31:39;;;;;;;1.10;0.73;;;9.80;50.40;;;;;;5037030;28;20169;-48
2021/12/01 06:34:06;;;;;;;1.90;0.80;;;9.80;50.40;;;;;;5036847;28;20173;-46
2021/12/01 06:36:34;;;;;;;1.33;0.52;;;9.80;50.50;;;;;;5020199;28;20166;-48
2021/12/01 06:39:02;;;;;;;1.00;0.40;;;9.80;51.10;;;;;;5053758;28;20217;-47
2021/12/01 06:41:30;;;;;;;1.38;0.77;;;9.90;50.60;;;;;;5037009;28;20664;-48
2021/12/01 06:43:58;;;;;;;1.90;0.88;;;9.90;50.80;;;;;;5036667;28;20207;-47
2021/12/01 06:46:26;;;;;;;1.27;0.50;;;9.90;50.80;;;;;;5054105;28;20161;-48
2021/12/01 06:48:53;;;;;;;1.00;0.30;;;9.90;50.80;;;;;;5054065;28;20175;-46
2021/12/01 06:51:21;;;;;;;1.38;0.50;;;9.90;50.80;;;;;;5054081;28;20643;-46
2021/12/01 06:53:48;;;;;;;1.10;0.28;;;10.00;50.70;;;;;;5054037;28;20671;-47
2021/12/01 06:56:16;;;;;;;1.85;0.95;;;10.00;50.70;;;;;;5053960;28;20165;-47
2021/12/01 06:58:44;;;;;;;1.00;0.30;;;10.00;50.50;;;;;;5036725;28;20244;-47
2021/12/01 07:01:12;;;;;;;1.10;0.50;;;10.00;50.70;;;;;;5036738;28;20171;-48
2021/12/01 07:03:40;;;;;;;1.10;0.30;;;10.10;50.60;;;;;;5036307;28;20219;-47
2021/12/01 07:06:07;;;;;;;1.17;0.47;;;10.20;50.60;;;;;;5036543;28;20609;-47
2021/12/01 07:08:36;;;;;;;1.20;0.43;;;10.20;50.60;;;;;;5053968;28;20200;-47
2021/12/01 07:11:04;;;;;;;1.02;0.40;;;10.20;50.70;;;;;;5057429;28;20192;-47
2021/12/01 07:13:33;;;;;;;1.55;0.45;;;10.20;50.70;;;;;;5040219;28;20165;-47
2021/12/01 07:16:02;;;;;;;1.10;0.52;;;10.20;50.60;;;;;;5057361;28;20214;-48
2021/12/01 07:18:29;;;;;;;1.20;0.65;;;10.20;50.70;;;;;;5057361;28;20169;-48
2021/12/01 07:20:57;;;;;;;1.10;0.40;;;10.30;50.70;;;;;;5057299;28;20206;-48
2021/12/01 07:23:25;;;;;;;1.10;0.50;;;10.30;50.70;;;;;;5057115;28;20203;-47
2021/12/01 07:25:53;;;;;;;2.28;0.70;;;10.30;50.70;;;;;;5039943;28;20166;-48
2021/12/01 07:28:20;;;;;;;2.65;0.90;;;10.30;50.70;;;;;;5057302;28;20168;-48
2021/12/01 07:30:47;;;;;;;1.20;0.40;;;10.40;51.40;;;;;;5039455;28;20261;-48
2021/12/01 07:33:15;;;;;;;1.00;0.32;;;10.30;50.60;;;;;;5036315;28;20182;-47
2021/12/01 07:35:42;;;;;;;1.13;0.40;;;10.40;50.70;;;;;;5037078;28;20170;-47
2021/12/01 07:38:12;;;;;;;2.55;1.02;;;10.40;50.60;;;;;;5036890;28;20563;-47
2021/12/01 07:40:39;;;;;;;1.50;0.70;;;10.40;50.60;;;;;;5049451;28;20217;-48
2021/12/01 07:43:07;;;;;;;1.38;1.05;;;10.40;50.60;;;;;;5056755;28;20204;-47
2021/12/01 07:45:35;;;;;;;2.17;0.82;;;10.40;50.70;;;;;;5055824;28;20552;-47
2021/12/01 07:48:03;;;;;;;1.10;0.50;;;10.40;50.80;;;;;;5056806;28;20158;-47
2021/12/01 07:50:30;;;;;;;3.15;1.05;;;10.50;50.80;;;;;;5055946;28;20716;-50
2021/12/01 07:52:58;;;;;;;2.95;0.60;;;10.50;50.80;;;;;;5056713;28;20181;-50
2021/12/01 07:55:26;;;;;;;1.05;0.40;;;10.50;50.80;;;;;;5055845;28;20230;-50
2021/12/01 07:57:53;;;;;;;1.40;0.93;;;10.50;50.80;;;;;;5056599;28;20174;-50
2021/12/01 08:00:22;;;;;;;1.30;0.50;;;10.50;51.00;;;;;;5055796;28;20175;-50
2021/12/01 08:02:49;;;;;;;1.10;0.40;;;10.50;50.90;;;;;;5056466;28;20198;-50
2021/12/01 08:05:16;;;;;;;1.15;0.30;;;10.40;50.90;;;;;;5055584;28;20161;-49
2021/12/01 08:07:44;;;;;;;1.00;0.40;;;10.50;50.90;;;;;;5056349;28;20176;-50
2021/12/01 08:10:12;;;;;;;1.02;0.47;;;10.50;50.90;;;;;;5056436;28;20586;-50
2021/12/01 08:12:40;;;;;;;1.15;0.70;;;10.50;50.80;;;;;;5056320;28;20161;-50
2021/12/01 08:15:08;;;;;;;1.13;0.52;;;10.50;50.70;;;;;;5056511;28;20578;-50
2021/12/01 08:17:35;;;;;;;1.10;0.40;;;10.50;50.80;;;;;;5056243;28;20195;-50
2021/12/01 08:20:04;;;;;;;1.10;0.40;;;10.50;50.90;;;;;;5038654;28;20503;-48
2021/12/01 08:22:32;;;;;;;1.00;0.30;;;10.50;50.90;;;;;;5056384;28;20181;-48
2021/12/01 08:24:59;;;;;;;1.10;0.57;;;10.50;50.70;;;;;;5055155;28;20622;-49
2021/12/01 08:27:29;;;;;;;1.48;0.60;;;10.50;50.50;;;;;;5038812;28;20178;-49
2021/12/01 08:29:56;;;;;;;1.10;0.30;;;10.60;50.60;;;;;;5055233;28;20190;-49
2021/12/01 08:32:24;;;;;;;1.52;0.38;;;10.60;50.70;;;;;;5038675;28;20200;-49
2021/12/01 08:34:51;;;;;;;1.45;0.55;;;10.60;50.60;;;;;;5055174;28;20219;-49
2021/12/01 08:37:20;;;;;;;1.00;0.30;;;10.70;50.70;;;;;;5055016;28;20169;-49
2021/12/01 08:39:49;;;;;;;1.10;0.45;;;10.60;50.60;;;;;;5055565;28;20217;-49
2021/12/01 08:42:18;;;;;;;1.77;0.70;;;10.60;50.60;;;;;;5055827;28;20174;-49
2021/12/01 08:44:47;;;;;;;1.63;0.60;;;10.60;50.60;;;;;;5055645;28;20199;-50
2021/12/01 08:47:16;;;;;;;1.00;0.30;;;10.60;50.70;;;;;;5054831;28;20245;-50
2021/12/01 08:49:44;;;;;;;1.20;0.55;;;10.60;50.80;;;;;;5054760;28;20244;-49
2021/12/01 08:52:12;;;;;;;1.65;0.40;;;10.60;50.80;;;;;;5050343;28;20509;-49
2021/12/01 08:54:40;;;;;;;1.00;0.40;;;10.60;50.70;;;;;;5074605;28;20206;-49
2021/12/01 08:57:08;;;;;;;1.10;0.50;;;10.60;50.40;;;;;;5075511;28;20283;-49
2021/12/01 08:59:36;;;;;;;1.30;0.50;;;10.60;50.50;;;;;;5074487;28;20620;-50
2021/12/01 09:02:04;;;;;;;2.10;0.68;;;10.60;49.80;;;;;;5075394;28;20656;-49
2021/12/01 09:04:32;;;;;;;1.10;0.40;;;10.60;50.00;;;;;;5075283;28;20273;-49
2021/12/01 09:07:00;;;;;;;1.10;0.35;;;10.60;50.10;;;;;;5047149;28;20483;-49
2021/12/01 09:09:27;;;;;;;1.20;0.55;;;10.70;50.30;;;;;;5055303;28;20171;-49
2021/12/01 09:11:55;;;;;;;1.10;0.50;;;10.60;49.70;;;;;;5055264;28;20165;-50
2021/12/01 09:14:24;;;;;;;1.10;0.40;;;10.60;49.30;;;;;;5054194;28;20514;-49
2021/12/01 09:16:52;;;;;;;1.05;0.30;;;10.60;49.60;;;;;;5054385;28;20201;-49
2021/12/01 09:19:20;;;;;;;1.15;0.68;;;10.70;50.10;;;;;;5054211;28;20157;-50
2021/12/01 09:21:48;;;;;;;1.10;0.50;;;10.80;49.70;;;;;;5054181;28;20176;-49
2021/12/01 09:24:16;;;;;;;1.13;0.38;;;10.80;49.80;;;;;;5021290;28;20217;-49
2021/12/01 09:26:49;;;;;;;1.08;0.40;;;10.80;49.50;;;;;;5054190;28;20205;-48
2021/12/01 09:29:16;;;;;;;1.30;0.50;;;10.90;49.70;;;;;;5054157;28;20164;-49
2021/12/01 09:31:44;;;;;;;1.20;0.70;;;10.80;49.40;;;;;;5053535;28;20165;-50
2021/12/01 09:34:12;;;;;;;1.65;0.85;;;10.80;49.30;;;;;;5054903;28;20475;-50
2021/12/01 09:36:40;;;;;;;1.38;0.68;;;10.90;49.40;;;;;;5054788;28;20230;-49
2021/12/01 09:39:08;;;;;;;1.13;0.55;;;10.90;48.70;;;;;;5054561;28;20208;-48
2021/12/01 09:41:37;;;;;;;2.85;0.80;;;10.90;48.70;;;;;;5053895;28;20157;-48
2021/12/01 09:44:04;;;;;;;1.30;0.68;;;11.00;49.10;;;;;;5053915;28;20216;-49
2021/12/01 09:46:32;;;;;;;1.10;0.50;;;11.00;48.90;;;;;;5053806;28;20167;-49
2021/12/01 09:49:00;;;;;;;1.05;0.40;;;11.00;48.40;;;;;;5037506;28;20157;-50
2021/12/01 09:51:27;;;;;;;1.27;0.68;;;11.10;48.90;;;;;;5054602;28;20230;-48
2021/12/01 09:53:57;;;;;;;1.13;0.63;;;11.10;49.00;;;;;;5053785;28;20169;-49
2021/12/01 09:56:25;;;;;;;1.20;0.52;;;11.20;48.40;;;;;;5037461;28;20177;-48
2021/12/01 09:58:53;;;;;;;1.10;0.47;;;11.30;48.70;;;;;;5040100;28;20177;-49
2021/12/01 10:01:22;;;;;;;1.10;0.40;;;11.30;48.50;;;;;;5074609;28;20260;-49
2021/12/01 10:03:51;;;;;;;1.10;0.50;;;11.40;47.00;;;;;;5074524;28;20187;-48
2021/12/01 10:06:23;;;;;;;1.83;0.60;;;11.50;47.90;;;;;;5073746;28;20176;-49
2021/12/01 10:09:01;;;;;;;1.77;0.50;;;11.50;47.80;;;;;;5073677;28;20176;-49
2021/12/01 10:11:33;;;;;;;1.10;0.50;;;11.50;46.90;;;;;;5057053;28;20185;-49
2021/12/01 10:14:04;;;;;;;3.95;0.95;;;11.50;47.40;;;;;;5073701;28;20160;-50
2021/12/01 10:16:34;;;;;;;2.33;1.05;;;11.50;47.30;;;;;;5074522;28;20188;-50
2021/12/01 10:19:06;;;;;;;1.10;0.45;;;11.50;46.80;;;;;;5073592;28;20152;-49
2021/12/01 10:21:39;;;;;;;1.05;0.30;;;11.60;47.30;;;;;;5074569;28;20149;-50
2021/12/01 10:24:17;;;;;;;1.30;1.00;;;11.60;46.40;;;;;;5073580;28;20280;-50
2021/12/01 10:26:49;;;;;;;3.28;0.73;;;11.60;46.70;;;;;;5057766;28;20682;-49
2021/12/01 10:29:20;;;;;;;1.20;0.47;;;11.50;46.60;;;;;;5074406;28;20153;-49
2021/12/01 10:31:53;;;;;;;1.17;0.50;;;11.60;46.90;;;;;;5074288;28;20665;-48
2021/12/01 10:34:36;;;;;;;1.10;0.47;;;11.70;46.80;;;;;;5073600;28;20165;-50
2021/12/01 10:37:26;;;;;;;1.27;0.57;;;11.70;46.20;;;;;;5074275;28;20211;-49
2021/12/01 10:40:12;;;;;;;1.10;0.40;;;11.80;46.90;;;;;;5058731;28;20231;-46
2021/12/01 10:43:01;;;;;;;1.10;0.40;;;11.80;46.60;;;;;;5074572;28;20153;-47
2021/12/01 10:45:34;;;;;;;1.50;0.65;;;11.70;45.80;;;;;;5077997;28;20176;-47
2021/12/01 10:48:04;;;;;;;1.30;0.50;;;11.60;45.70;;;;;;5077919;28;20168;-47
2021/12/01 10:50:34;;;;;;;1.92;0.43;;;11.50;45.60;;;;;;5044177;28;20211;-48
2021/12/01 10:53:05;;;;;;;1.30;0.40;;;11.50;46.10;;;;;;5077769;28;20618;-47
2021/12/01 10:55:35;;;;;;;1.30;0.30;;;11.40;44.20;;;;;;5060811;28;20240;-47
2021/12/01 10:58:07;;;;;;;1.50;0.45;;;11.40;45.20;;;;;;5060299;28;20173;-46
2021/12/01 11:00:48;;;;;;;1.20;0.70;;;11.30;44.30;;;;;;5061784;28;20510;-46
2021/12/01 11:03:18;;;;;;;1.95;0.88;;;11.30;44.70;;;;;;5056788;28;20280;-47
2021/12/01 11:05:57;;;;;;;1.20;0.55;;;11.40;45.50;;;;;;5056828;28;20482;-46
2021/12/01 11:08:30;;;;;;;1.10;0.50;;;11.50;45.20;;;;;;5057584;28;20244;-46
2021/12/01 11:11:08;;;;;;;1.67;0.88;;;11.50;44.30;;;;;;5074693;28;20203;-47
2021/12/01 11:13:37;;;;;;;1.00;0.30;;;11.60;44.70;;;;;;5077620;28;20225;-47
2021/12/01 11:16:06;;;;;;;1.20;0.40;;;11.50;43.90;;;;;;5076605;28;20605;-48
2021/12/01 11:18:36;;;;;;;1.10;0.50;;;11.50;45.20;;;;;;5076611;28;20508;-47
2021/12/01 11:21:10;;;;;;;1.20;0.77;;;11.60;44.30;;;;;;5076558;28;20224;-47
2021/12/01 11:23:45;;;;;;;1.10;0.40;;;11.70;44.40;;;;;;5077402;28;20188;-46
2021/12/01 11:26:19;;;;;;;1.65;0.75;;;11.70;43.90;;;;;;5076382;28;20169;-45
2021/12/01 11:28:53;;;;;;;1.10;0.47;;;11.70;43.90;;;;;;5056280;28;20160;-47
2021/12/01 11:31:35;;;;;;;1.10;0.40;;;11.50;43.70;;;;;;5072856;28;20158;-48
2021/12/01 11:34:09;;;;;;;1.20;0.45;;;11.40;44.90;;;;;;5072811;28;20169;-47
2021/12/01 11:36:45;;;;;;;1.10;0.68;;;11.40;45.00;;;;;;5057067;28;20177;-47
2021/12/01 11:39:22;;;;;;;1.20;0.80;;;11.40;44.80;;;;;;5052497;28;20213;-46
2021/12/01 11:41:51;;;;;;;1.20;0.50;;;11.60;43.80;;;;;;5020672;28;20252;-48
2021/12/01 11:44:20;;;;;;;1.10;0.38;;;11.70;44.80;;;;;;5019648;28;20323;-47
2021/12/01 11:46:52;;;;;;;1.38;0.55;;;11.70;43.80;;;;;;5019841;28;20551;-48
2021/12/01 11:49:22;;;;;;;1.63;0.57;;;11.80;43.90;;;;;;5019813;28;20605;-48
2021/12/01 11:52:01;;;;;;;1.10;0.40;;;11.80;43.80;;;;;;4987515;28;20174;-47
2021/12/01 11:54:31;;;;;;;3.20;0.68;;;11.70;43.70;;;;;;5036252;28;20154;-47
2021/12/01 11:57:00;;;;;;;1.15;0.43;;;11.80;44.30;;;;;;5036475;28;20300;-49
2021/12/01 11:59:28;;;;;;;1.20;0.50;;;11.90;43.60;;;;;;5019474;28;20212;-49
2021/12/01 12:01:57;;;;;;;1.17;0.50;;;11.90;43.40;;;;;;5036623;28;20170;-49
2021/12/01 12:04:38;;;;;;;1.10;0.47;;;12.00;43.60;;;;;;5019461;28;20573;-49
2021/12/01 12:07:08;;;;;;;1.02;0.30;;;12.10;43.00;;;;;;5020822;28;20678;-48
2021/12/01 12:09:37;;;;;;;1.30;0.75;;;12.00;42.60;;;;;;5019518;28;20236;-49
2021/12/01 12:12:20;;;;;;;1.40;0.60;;;11.90;42.80;;;;;;5019144;28;20174;-49
2021/12/01 12:14:50;;;;;;;1.10;0.40;;;12.00;42.90;;;;;;5042454;28;20181;-51
2021/12/01 12:17:22;;;;;;;1.00;0.30;;;12.10;42.70;;;;;;5056344;28;20302;-49
2021/12/01 12:19:53;;;;;;;1.30;0.63;;;12.10;42.70;;;;;;5039571;28;20168;-49
2021/12/01 12:22:33;;;;;;;1.05;0.30;;;12.10;42.80;;;;;;5056055;28;20188;-48
2021/12/01 12:25:01;;;;;;;1.30;0.60;;;12.10;42.90;;;;;;5038491;28;20262;-49
2021/12/01 12:27:55;;;;;;;1.35;0.70;;;12.20;42.80;;;;;;5055944;28;20245;-50
2021/12/01 12:30:35;;;;;;;1.10;0.40;;;12.30;42.40;;;;;;5052106;28;20181;-49
2021/12/01 12:33:19;;;;;;;1.05;0.30;;;12.20;42.60;;;;;;5056126;28;20153;-49
2021/12/01 12:35:51;;;;;;;1.10;0.40;;;12.30;42.40;;;;;;5055873;28;20684;-49
2021/12/01 12:38:19;;;;;;;1.15;0.55;;;12.30;43.10;;;;;;5055988;28;20146;-50
2021/12/01 12:40:47;;;;;;;1.10;0.40;;;12.30;43.30;;;;;;5056140;28;20240;-49
2021/12/01 12:43:24;;;;;;;1.10;0.40;;;12.40;42.80;;;;;;5055766;28;20187;-50
2021/12/01 12:46:02;;;;;;;1.30;0.52;;;12.30;43.20;;;;;;5022347;28;20303;-49
2021/12/01 12:48:33;;;;;;;1.40;0.50;;;12.40;42.20;;;;;;5038187;28;20201;-49
2021/12/01 12:51:13;;;;;;;1.20;0.45;;;12.10;42.80;;;;;;5038512;28;20223;-49
2021/12/01 12:53:58;;;;;;;1.02;0.40;;;12.20;43.30;;;;;;5022316;28;20304;-48
2021/12/01 12:56:28;;;;;;;1.20;0.55;;;12.40;43.40;;;;;;5055570;28;20176;-50
2021/12/01 12:59:19;;;;;;;1.10;0.38;;;12.40;42.80;;;;;;5022090;28;20153;-49
2021/12/01 13:01:48;;;;;;;1.13;0.43;;;12.40;42.90;;;;;;5055490;28;20165;-49
2021/12/01 13:05:01;;;;;;;1.35;0.40;;;12.30;42.40;;;;;;5055187;28;20188;-49
2021/12/01 13:07:41;;;;;;;1.20;0.35;;;12.30;42.80;;;;;;5054328;28;20165;-49
2021/12/01 13:10:37;;;;;;;1.05;0.20;;;12.30;42.80;;;;;;5055383;28;20171;-49
2021/12/01 13:13:10;;;;;;;1.10;0.30;;;12.30;42.50;;;;;;5038196;28;20157;-49
2021/12/01 13:15:39;;;;;;;1.10;0.40;;;12.30;42.80;;;;;;5055207;28;20172;-49